Time;durP1;ratioP1;P1;durP2;ratioP2;P2;SDS_P1;SDS_P2;PMS_P1;PMS_P2;Temp;Humidity;BMP_temperature;BMP_pressure;BME280_temperature;BME280_humidity;BME280_pressure;Samples;Min_cycle;Max_cycle;Signal;HPM_P1;HPM_P2
2022/09/26 00:01:06;;;;;;;;;;;14.00;53.30;;;;;;5094989;28;19912;-90
2022/09/26 00:03:32;;;;;;;;;;;14.00;53.30;;;;;;5095798;28;19916;-91
2022/09/26 00:06:01;;;;;;;;;;;14.10;53.30;;;;;;5090820;28;19923;-93
2022/09/26 00:08:27;;;;;;;;;;;14.20;53.30;;;;;;5081799;28;19921;-90
2022/09/26 00:10:57;;;;;;;;;;;14.20;53.40;;;;;;5080117;28;19940;-85
2022/09/26 00:13:23;;;;;;;;;;;14.30;53.90;;;;;;5083865;28;20278;-90
2022/09/26 00:15:49;;;;;;;;;;;14.30;54.40;;;;;;5083171;28;20363;-92
2022/09/26 00:18:14;;;;;;;;;;;14.40;54.90;;;;;;5078596;28;19938;-89
2022/09/26 00:20:40;;;;;;;;;;;14.50;54.90;;;;;;5083695;28;19920;-85
2022/09/26 00:23:05;;;;;;;;;;;14.60;55.00;;;;;;5079083;28;20069;-85
2022/09/26 00:25:31;;;;;;;;;;;14.60;55.20;;;;;;5087768;28;20501;-87
2022/09/26 00:27:56;;;;;;;;;;;14.70;55.00;;;;;;5075380;28;19916;-89
2022/09/26 00:30:21;;;;;;;;;;;14.70;54.90;;;;;;5093096;28;19919;-89
2022/09/26 00:32:47;;;;;;;;;;;14.80;55.00;;;;;;5079855;28;20581;-92
2022/09/26 00:35:12;;;;;;;;;;;14.80;54.90;;;;;;5086019;28;19920;-92
2022/09/26 00:37:38;;;;;;;;;;;14.80;54.70;;;;;;5083302;28;19962;-86
2022/09/26 00:40:04;;;;;;;;;;;14.80;54.70;;;;;;5089466;28;20011;-90
2022/09/26 00:42:29;;;;;;;;;;;14.70;54.60;;;;;;5083929;28;19991;-89
2022/09/26 00:44:55;;;;;;;;;;;14.70;54.60;;;;;;5085865;28;19916;-91
2022/09/26 00:47:21;;;;;;;;;;;14.70;54.60;;;;;;5087661;28;20643;-87
2022/09/26 00:49:47;;;;;;;;;;;14.70;54.70;;;;;;5080021;28;19917;-91
2022/09/26 00:52:15;;;;;;;;;;;14.70;54.70;;;;;;5078414;28;20010;-85
2022/09/26 00:54:44;;;;;;;;;;;14.70;54.80;;;;;;5081075;28;20354;-85
2022/09/26 00:57:11;;;;;;;;;;;14.70;55.00;;;;;;5083210;28;19935;-88
2022/09/26 00:59:40;;;;;;;;;;;14.70;55.10;;;;;;5077448;28;19924;-86
2022/09/26 01:02:06;;;;;;;;;;;14.70;55.10;;;;;;5079698;28;19968;-87
2022/09/26 01:04:34;;;;;;;;;;;14.70;55.10;;;;;;5082007;28;19956;-85
2022/09/26 01:07:00;;;;;;;;;;;14.70;55.00;;;;;;5076767;28;19912;-88
2022/09/26 01:09:27;;;;;;;;;;;14.70;54.90;;;;;;5082331;28;19921;-89
2022/09/26 01:11:53;;;;;;;;;;;14.70;54.90;;;;;;5089457;28;19923;-85
2022/09/26 01:14:20;;;;;;;;;;;14.70;54.90;;;;;;5092900;28;19915;-85
2022/09/26 01:16:47;;;;;;;;;;;14.70;54.90;;;;;;5084543;28;19986;-85
2022/09/26 01:19:19;;;;;;;;;;;14.70;55.10;;;;;;5090760;28;19928;-87
2022/09/26 01:21:47;;;;;;;;;;;14.80;55.30;;;;;;5088745;28;19920;-89
2022/09/26 01:24:26;;;;;;;;;;;14.80;55.40;;;;;;5072459;28;20256;-85
2022/09/26 01:26:57;;;;;;;;;;;14.90;55.70;;;;;;5073111;28;20008;-92
2022/09/26 01:29:38;;;;;;;;;;;14.90;55.80;;;;;;5075516;28;19973;-93
2022/09/26 01:34:49;;;;;;;;;;;15.10;56.10;;;;;;5088329;28;19926;-84
2022/09/26 01:37:30;;;;;;;;;;;15.10;56.50;;;;;;5092215;28;19953;-86
2022/09/26 01:40:02;;;;;;;;;;;15.20;56.30;;;;;;5076252;28;19924;-87
2022/09/26 01:42:50;;;;;;;;;;;15.20;56.30;;;;;;5081244;28;19919;-88
2022/09/26 01:45:24;;;;;;;;;;;15.20;56.40;;;;;;5078611;28;19916;-90
2022/09/26 01:47:54;;;;;;;;;;;15.30;56.40;;;;;;5076967;28;19912;-87
2022/09/26 01:50:35;;;;;;;;;;;15.30;56.20;;;;;;5086619;28;19924;-87
2022/09/26 01:53:04;;;;;;;;;;;15.40;56.10;;;;;;5087115;28;19918;-87
2022/09/26 01:55:36;;;;;;;;;;;15.40;56.30;;;;;;5075521;28;20007;-92
2022/09/26 01:58:17;;;;;;;;;;;15.40;56.40;;;;;;5073907;28;19991;-92
2022/09/26 02:00:45;;;;;;;;;;;15.50;56.40;;;;;;5084050;28;20374;-93
2022/09/26 02:03:14;;;;;;;;;;;15.50;56.30;;;;;;5093270;28;19912;-93
2022/09/26 02:05:49;;;;;;;;;;;15.50;56.30;;;;;;5091127;28;19916;-92
2022/09/26 02:08:16;;;;;;;;;;;15.50;56.30;;;;;;5081184;28;19966;-88
2022/09/26 02:10:45;;;;;;;;;;;15.50;56.30;;;;;;5090802;28;20524;-86
2022/09/26 02:13:16;;;;;;;;;;;15.50;56.30;;;;;;5087835;28;20379;-88
2022/09/26 02:15:43;;;;;;;;;;;15.50;56.10;;;;;;5072552;28;20519;-87
2022/09/26 02:18:22;;;;;;;;;;;15.50;56.10;;;;;;5070454;28;19915;-91
2022/09/26 02:20:50;;;;;;;;;;;15.50;56.10;;;;;;5070141;28;19929;-87
2022/09/26 02:23:16;;;;;;;;;;;15.50;56.10;;;;;;5073896;28;19916;-87
2022/09/26 02:25:41;;;;;;;;;;;15.50;56.20;;;;;;5071303;28;19917;-85
2022/09/26 02:28:07;;;;;;;;;;;15.50;56.10;;;;;;5083244;28;20261;-87
2022/09/26 02:30:32;;;;;;;;;;;15.50;56.10;;;;;;5079256;28;19951;-88
2022/09/26 02:32:58;;;;;;;;;;;15.50;56.10;;;;;;5076012;28;19916;-86
2022/09/26 02:38:08;;;;;;;;;;;15.50;56.10;;;;;;5091891;28;19916;-91
2022/09/26 02:40:47;;;;;;;;;;;15.40;56.00;;;;;;5075679;28;19932;-91
2022/09/26 02:43:27;;;;;;;;;;;15.40;56.10;;;;;;5085659;28;19913;-92
2022/09/26 02:46:00;;;;;;;;;;;15.40;56.10;;;;;;5082451;28;19920;-92
2022/09/26 02:48:48;;;;;;;;;;;15.40;56.20;;;;;;5076418;28;19916;-92
2022/09/26 02:51:20;;;;;;;;;;;15.50;56.20;;;;;;5082422;28;19916;-89
2022/09/26 02:54:13;;;;;;;;;;;15.50;56.10;;;;;;5082315;28;19913;-87
2022/09/26 02:56:55;;;;;;;;;;;15.60;56.10;;;;;;5073654;28;19912;-91
2022/09/26 02:59:27;;;;;;;;;;;15.60;56.10;;;;;;5081280;28;20287;-88
2022/09/26 03:02:06;;;;;;;;;;;15.60;56.00;;;;;;5086453;28;19952;-88
2022/09/26 03:04:38;;;;;;;;;;;15.60;55.90;;;;;;5088218;28;19959;-89
2022/09/26 03:07:06;;;;;;;;;;;15.60;55.80;;;;;;5081549;28;19918;-86
2022/09/26 03:09:33;;;;;;;;;;;15.60;55.80;;;;;;5080555;28;20004;-89
2022/09/26 03:12:00;;;;;;;;;;;15.70;55.70;;;;;;5087099;28;19926;-86
2022/09/26 03:14:27;;;;;;;;;;;15.70;55.80;;;;;;5077306;28;19916;-88
2022/09/26 03:16:53;;;;;;;;;;;15.60;55.70;;;;;;5087799;28;19920;-93
2022/09/26 03:19:28;;;;;;;;;;;15.70;55.50;;;;;;5082111;28;19920;-88
2022/09/26 03:21:54;;;;;;;;;;;15.70;55.50;;;;;;5086446;28;19920;-89
2022/09/26 03:24:19;;;;;;;;;;;15.70;55.40;;;;;;5076394;28;20073;-84
2022/09/26 03:26:45;;;;;;;;;;;15.70;55.40;;;;;;5078863;28;19998;-89
2022/09/26 03:29:11;;;;;;;;;;;15.60;55.40;;;;;;5089503;28;19916;-93
2022/09/26 03:31:36;;;;;;;;;;;15.60;55.40;;;;;;5075572;28;19917;-86
2022/09/26 03:34:02;;;;;;;;;;;15.70;55.30;;;;;;5079447;28;20011;-86
2022/09/26 03:36:27;;;;;;;;;;;15.70;55.30;;;;;;5079941;28;20007;-87
2022/09/26 03:38:53;;;;;;;;;;;15.70;55.30;;;;;;5089893;28;19952;-87
2022/09/26 03:41:18;;;;;;;;;;;15.70;55.20;;;;;;5086033;28;19916;-87
2022/09/26 03:43:44;;;;;;;;;;;15.70;55.20;;;;;;5093024;28;19912;-88
2022/09/26 03:46:10;;;;;;;;;;;15.70;55.20;;;;;;5083397;28;19916;-85
2022/09/26 03:48:37;;;;;;;;;;;15.70;55.20;;;;;;5083307;28;19920;-88
2022/09/26 03:51:03;;;;;;;;;;;15.70;55.20;;;;;;5089540;28;20350;-89
2022/09/26 03:53:33;;;;;;;;;;;15.70;55.30;;;;;;5087318;28;19972;-88
2022/09/26 03:56:05;;;;;;;;;;;15.70;55.30;;;;;;5082415;28;19963;-92
2022/09/26 03:58:31;;;;;;;;;;;15.60;55.40;;;;;;5093343;28;19913;-93
2022/09/26 04:01:01;;;;;;;;;;;15.60;55.60;;;;;;5084623;28;20041;-88
2022/09/26 04:03:27;;;;;;;;;;;15.60;55.60;;;;;;5084434;28;20042;-92
2022/09/26 04:05:52;;;;;;;;;;;15.60;55.50;;;;;;5083123;28;19999;-89
2022/09/26 04:08:18;;;;;;;;;;;15.60;55.50;;;;;;5081814;28;19913;-87
2022/09/26 04:10:43;;;;;;;;;;;15.60;55.60;;;;;;5088274;28;19916;-85
2022/09/26 04:13:08;;;;;;;;;;;15.50;55.60;;;;;;5073984;28;19916;-86
2022/09/26 04:15:34;;;;;;;;;;;15.50;55.80;;;;;;5073460;28;19967;-87
2022/09/26 04:18:00;;;;;;;;;;;15.40;55.80;;;;;;5078084;28;19927;-87
2022/09/26 04:20:25;;;;;;;;;;;15.40;55.70;;;;;;5073239;28;19928;-85
2022/09/26 04:22:51;;;;;;;;;;;15.40;55.90;;;;;;5089059;28;19908;-86
2022/09/26 04:25:16;;;;;;;;;;;15.40;55.70;;;;;;5077274;28;20015;-88
2022/09/26 04:27:41;;;;;;;;;;;15.40;55.80;;;;;;5085390;28;20371;-88
2022/09/26 04:30:08;;;;;;;;;;;15.30;55.70;;;;;;5080050;28;19924;-85
2022/09/26 04:32:33;;;;;;;;;;;15.40;55.70;;;;;;5081809;28;20030;-90
2022/09/26 04:34:59;;;;;;;;;;;15.30;55.80;;;;;;5089963;28;20373;-87
2022/09/26 04:37:24;;;;;;;;;;;15.40;55.80;;;;;;5081103;28;19931;-87
2022/09/26 04:39:50;;;;;;;;;;;15.30;55.90;;;;;;5078017;28;19967;-88
2022/09/26 04:42:15;;;;;;;;;;;15.40;55.80;;;;;;5083129;28;19991;-88
2022/09/26 04:44:41;;;;;;;;;;;15.40;55.80;;;;;;5083750;28;19952;-87
2022/09/26 04:47:07;;;;;;;;;;;15.50;55.70;;;;;;5077877;28;19920;-93
2022/09/26 04:49:32;;;;;;;;;;;15.50;55.60;;;;;;5077942;28;19913;-88
2022/09/26 04:51:58;;;;;;;;;;;15.50;55.60;;;;;;5081597;28;19920;-90
2022/09/26 04:54:23;;;;;;;;;;;15.50;55.50;;;;;;5080118;28;19991;-86
2022/09/26 04:56:48;;;;;;;;;;;15.60;55.50;;;;;;5090651;28;19916;-86
2022/09/26 04:59:14;;;;;;;;;;;15.60;55.50;;;;;;5093322;28;19920;-89
2022/09/26 05:01:39;;;;;;;;;;;15.60;55.50;;;;;;5092731;28;19916;-88
2022/09/26 05:04:06;;;;;;;;;;;15.60;55.50;;;;;;5094541;28;19927;-85
2022/09/26 05:06:34;;;;;;;;;;;15.60;55.40;;;;;;5079106;28;19956;-89
2022/09/26 05:09:00;;;;;;;;;;;15.60;55.30;;;;;;5076427;28;20031;-87
2022/09/26 05:11:25;;;;;;;;;;;15.60;55.30;;;;;;5087915;28;20015;-87
2022/09/26 05:13:51;;;;;;;;;;;15.60;55.40;;;;;;5092643;28;19987;-92
2022/09/26 05:16:18;;;;;;;;;;;15.50;55.40;;;;;;5091331;28;19920;-92
2022/09/26 05:18:43;;;;;;;;;;;15.60;55.50;;;;;;5092006;28;20251;-86
2022/09/26 05:21:09;;;;;;;;;;;15.50;55.50;;;;;;5092722;28;19966;-91
2022/09/26 05:26:28;;;;;;;;;;;15.50;55.50;;;;;;5094027;28;19970;-90
2022/09/26 05:28:54;;;;;;;;;;;15.50;55.70;;;;;;5092055;28;19965;-89
2022/09/26 05:31:22;;;;;;;;;;;15.50;55.60;;;;;;5088305;28;20344;-86
2022/09/26 05:33:49;;;;;;;;;;;15.50;55.80;;;;;;5091813;28;19920;-87
2022/09/26 05:36:15;;;;;;;;;;;15.50;55.90;;;;;;5093354;28;19920;-89
2022/09/26 05:38:40;;;;;;;;;;;15.60;55.80;;;;;;5087542;28;19962;-85
2022/09/26 05:41:06;;;;;;;;;;;15.60;55.90;;;;;;5092136;28;19956;-91
2022/09/26 05:43:32;;;;;;;;;;;15.60;55.80;;;;;;5091857;28;19916;-89
2022/09/26 05:45:59;;;;;;;;;;;15.60;55.80;;;;;;5093968;28;19930;-86
2022/09/26 05:48:31;;;;;;;;;;;15.70;55.90;;;;;;5091964;28;19915;-91
2022/09/26 05:51:00;;;;;;;;;;;15.70;56.10;;;;;;5092353;28;20389;-89
2022/09/26 05:53:26;;;;;;;;;;;15.80;56.20;;;;;;5093336;28;19920;-86
2022/09/26 05:55:51;;;;;;;;;;;16.00;55.90;;;;;;5092426;28;20422;-90
2022/09/26 05:58:17;;;;;;;;;;;16.00;55.50;;;;;;5089294;28;20569;-87
2022/09/26 06:00:46;;;;;;;;;;;16.00;55.40;;;;;;5088654;28;20417;-87
2022/09/26 06:03:11;;;;;;;;;;;16.10;55.30;;;;;;5092308;28;19912;-89
2022/09/26 06:05:37;;;;;;;;;;;16.20;55.20;;;;;;5088533;28;20509;-86
2022/09/26 06:08:02;;;;;;;;;;;16.20;55.20;;;;;;5088363;28;19920;-86
2022/09/26 06:10:29;;;;;;;;;;;16.30;55.10;;;;;;5088780;28;19915;-87
2022/09/26 06:12:54;;;;;;;;;;;16.40;55.00;;;;;;5088387;28;19912;-87
2022/09/26 06:15:20;;;;;;;;;;;16.50;54.90;;;;;;5091797;28;20038;-90
2022/09/26 06:17:47;;;;;;;;;;;16.50;54.70;;;;;;5093309;28;19919;-91
2022/09/26 06:20:12;;;;;;;;;;;16.50;54.60;;;;;;5090468;28;20007;-90
2022/09/26 06:22:39;;;;;;;;;;;16.70;54.50;;;;;;5092582;28;19966;-88
2022/09/26 06:25:04;;;;;;;;;;;16.70;54.50;;;;;;5088566;28;19919;-88
2022/09/26 06:27:31;;;;;;;;;;;16.70;54.50;;;;;;5089630;28;19916;-85
2022/09/26 06:29:56;;;;;;;;;;;16.80;54.50;;;;;;5090464;28;20538;-90
2022/09/26 06:32:21;;;;;;;;;;;16.80;54.50;;;;;;5089599;28;19916;-87
2022/09/26 06:34:47;;;;;;;;;;;16.90;54.40;;;;;;5091404;28;20336;-90
2022/09/26 06:37:13;;;;;;;;;;;17.00;54.20;;;;;;5090698;28;20021;-90
2022/09/26 06:39:39;;;;;;;;;;;17.20;54.10;;;;;;5091183;28;20028;-88
2022/09/26 06:42:06;;;;;;;;;;;17.30;54.00;;;;;;5090097;28;20487;-86
2022/09/26 06:44:32;;;;;;;;;;;17.50;53.80;;;;;;5092956;28;19951;-85
2022/09/26 06:47:01;;;;;;;;;;;17.70;53.50;;;;;;5092380;28;19916;-87
2022/09/26 06:49:27;;;;;;;;;;;17.80;53.30;;;;;;5090757;28;19998;-91
2022/09/26 06:51:52;;;;;;;;;;;18.10;52.90;;;;;;5089894;28;19994;-88
2022/09/26 06:54:18;;;;;;;;;;;18.20;52.70;;;;;;5092264;28;19951;-91
2022/09/26 06:56:43;;;;;;;;;;;18.40;52.70;;;;;;5092326;28;19958;-90
2022/09/26 06:59:09;;;;;;;;;;;18.70;52.50;;;;;;5089806;28;19943;-89
2022/09/26 07:01:35;;;;;;;;;;;18.80;51.30;;;;;;5090454;28;19908;-89
2022/09/26 07:04:01;;;;;;;;;;;18.80;50.60;;;;;;5089006;28;19916;-85
2022/09/26 07:06:26;;;;;;;;;;;18.80;49.90;;;;;;5091929;28;20366;-86
2022/09/26 07:08:52;;;;;;;;;;;18.90;49.80;;;;;;5084749;28;20214;-88
2022/09/26 07:11:18;;;;;;;;;;;19.00;49.80;;;;;;5087340;28;19927;-89
2022/09/26 07:13:44;;;;;;;;;;;19.20;49.70;;;;;;5089192;28;19924;-86
2022/09/26 07:16:11;;;;;;;;;;;19.10;49.00;;;;;;5087993;28;20694;-90
2022/09/26 07:18:37;;;;;;;;;;;19.10;48.90;;;;;;5087953;28;19916;-89
2022/09/26 07:21:03;;;;;;;;;;;19.30;48.90;;;;;;5086924;28;19951;-85
2022/09/26 07:23:29;;;;;;;;;;;19.30;48.70;;;;;;5088052;28;19920;-87
2022/09/26 07:25:54;;;;;;;;;;;19.40;48.50;;;;;;5088959;28;20255;-89
2022/09/26 07:28:20;;;;;;;;;;;19.50;48.50;;;;;;5089604;28;20613;-89
2022/09/26 07:30:45;;;;;;;;;;;19.60;48.10;;;;;;5089180;28;19912;-89
2022/09/26 07:33:11;;;;;;;;;;;19.70;48.20;;;;;;5086752;28;20703;-92
2022/09/26 07:35:37;;;;;;;;;;;19.70;47.70;;;;;;5088453;28;19923;-87
2022/09/26 07:38:04;;;;;;;;;;;19.90;48.00;;;;;;5087776;28;19931;-88
2022/09/26 07:40:29;;;;;;;;;;;20.20;47.80;;;;;;5088513;28;19920;-89
2022/09/26 07:42:58;;;;;;;;;;;20.30;47.00;;;;;;5089125;28;19923;-87
2022/09/26 07:50:55;;;;;;;;;;;20.70;45.70;;;;;;5086197;28;19966;-91
2022/09/26 07:53:20;;;;;;;;;;;20.90;45.50;;;;;;5087738;28;20015;-89
2022/09/26 07:56:04;;;;;;;;;;;21.20;45.10;;;;;;5087177;28;20091;-89
2022/09/26 07:58:30;;;;;;;;;;;21.40;44.70;;;;;;5086401;28;19920;-85
2022/09/26 08:00:56;;;;;;;;;;;21.60;43.60;;;;;;5087634;28;19920;-89
2022/09/26 08:03:25;;;;;;;;;;;21.70;43.00;;;;;;5091005;28;19924;-88
2022/09/26 08:05:52;;;;;;;;;;;21.70;42.70;;;;;;5090908;28;19912;-90
2022/09/26 08:08:17;;;;;;;;;;;21.90;42.80;;;;;;5091443;28;19920;-87
2022/09/26 08:10:44;;;;;;;;;;;21.90;41.90;;;;;;5089678;28;19916;-85
2022/09/26 08:13:10;;;;;;;;;;;21.90;41.90;;;;;;5089470;28;19998;-88
2022/09/26 08:15:35;;;;;;;;;;;21.90;41.60;;;;;;5092030;28;19912;-86
2022/09/26 08:18:01;;;;;;;;;;;22.10;42.00;;;;;;5090900;28;19927;-86
2022/09/26 08:20:27;;;;;;;;;;;22.20;41.90;;;;;;5092321;28;19928;-93
2022/09/26 08:22:56;;;;;;;;;;;22.40;42.20;;;;;;5089916;28;19923;-85
2022/09/26 08:25:21;;;;;;;;;;;22.60;41.60;;;;;;5093979;28;20043;-90
2022/09/26 08:27:49;;;;;;;;;;;22.80;41.00;;;;;;5090747;28;20537;-88
2022/09/26 08:30:24;;;;;;;;;;;22.90;40.10;;;;;;5088677;28;19920;-88
2022/09/26 08:32:53;;;;;;;;;;;23.10;39.90;;;;;;5088417;28;19912;-86
2022/09/26 08:35:21;;;;;;;;;;;23.10;39.20;;;;;;5091679;28;19920;-89
2022/09/26 08:37:46;;;;;;;;;;;23.20;39.00;;;;;;5089817;28;19920;-87
2022/09/26 08:40:13;;;;;;;;;;;23.30;39.10;;;;;;5092030;28;19932;-90
2022/09/26 08:42:47;;;;;;;;;;;23.30;38.30;;;;;;5090198;28;19912;-91
2022/09/26 08:48:26;;;;;;;;;;;23.50;38.90;;;;;;5090237;28;19923;-92
2022/09/26 08:50:59;;;;;;;;;;;23.40;38.30;;;;;;5087851;28;20454;-93
2022/09/26 08:53:31;;;;;;;;;;;23.40;37.90;;;;;;5090515;28;19912;-88
2022/09/26 08:55:58;;;;;;;;;;;23.40;38.00;;;;;;5088918;28;19920;-87
2022/09/26 08:58:36;;;;;;;;;;;23.40;38.20;;;;;;5091176;28;19957;-90
2022/09/26 09:01:05;;;;;;;;;;;23.40;38.40;;;;;;5087994;28;20343;-89
2022/09/26 09:03:43;;;;;;;;;;;23.30;37.60;;;;;;5087663;28;19912;-86
2022/09/26 09:06:10;;;;;;;;;;;23.20;37.70;;;;;;5083396;28;19920;-86
2022/09/26 09:08:38;;;;;;;;;;;23.10;37.80;;;;;;5091430;28;19912;-93
2022/09/26 09:11:13;;;;;;;;;;;23.00;38.20;;;;;;5089400;28;19920;-88
2022/09/26 09:13:46;;;;;;;;;;;22.90;38.40;;;;;;5091479;28;20009;-90
2022/09/26 09:16:17;;;;;;;;;;;22.80;38.40;;;;;;5087775;28;20537;-89
2022/09/26 09:18:47;;;;;;;;;;;22.70;38.80;;;;;;5089866;28;19916;-89
2022/09/26 09:21:28;;;;;;;;;;;22.70;39.10;;;;;;5089545;28;19924;-92
2022/09/26 09:24:17;;;;;;;;;;;22.70;39.50;;;;;;5088238;28;19947;-88
2022/09/26 09:27:11;;;;;;;;;;;22.70;39.10;;;;;;5087683;28;19912;-92
2022/09/26 09:29:41;;;;;;;;;;;22.60;38.90;;;;;;5089860;28;19916;-90
2022/09/26 09:32:09;;;;;;;;;;;22.60;39.30;;;;;;5086368;28;19944;-87
2022/09/26 09:34:41;;;;;;;;;;;22.50;39.50;;;;;;5090080;28;20385;-89
2022/09/26 09:37:11;;;;;;;;;;;22.30;39.90;;;;;;5090751;28;19919;-87
2022/09/26 09:39:38;;;;;;;;;;;22.10;41.10;;;;;;5088121;28;19927;-86
2022/09/26 09:42:09;;;;;;;;;;;21.80;41.80;;;;;;5090253;28;19950;-92
2022/09/26 09:44:43;;;;;;;;;;;21.60;42.10;;;;;;5091175;28;19916;-90
2022/09/26 09:47:13;;;;;;;;;;;21.40;42.90;;;;;;5093295;28;19920;-90
2022/09/26 09:49:39;;;;;;;;;;;21.20;43.40;;;;;;5089036;28;19912;-87
2022/09/26 09:52:13;;;;;;;;;;;21.00;43.90;;;;;;5087426;28;19988;-89
2022/09/26 09:54:54;;;;;;;;;;;20.80;44.60;;;;;;5088876;28;20538;-91
2022/09/26 09:57:20;;;;;;;;;;;20.80;45.40;;;;;;5090358;28;19919;-87
2022/09/26 10:00:00;;;;;;;;;;;20.50;45.80;;;;;;5089969;28;20396;-86
2022/09/26 10:02:47;;;;;;;;;;;20.60;46.10;;;;;;5087833;28;19908;-90
2022/09/26 10:05:34;;;;;;;;;;;20.60;46.70;;;;;;5086836;28;19929;-90
2022/09/26 10:07:59;;;;;;;;;;;20.40;47.20;;;;;;5089747;28;20522;-90
2022/09/26 10:10:38;;;;;;;;;;;20.30;47.80;;;;;;5089845;28;20010;-86
2022/09/26 10:13:05;;;;;;;;;;;20.10;48.70;;;;;;5091038;28;19916;-87
2022/09/26 10:15:31;;;;;;;;;;;19.80;49.90;;;;;;5088346;28;19963;-90
2022/09/26 10:18:04;;;;;;;;;;;19.70;51.00;;;;;;5088167;28;19915;-92
2022/09/26 10:20:36;;;;;;;;;;;19.70;52.80;;;;;;5086081;28;19928;-91
2022/09/26 10:23:07;;;;;;;;;;;19.50;54.40;;;;;;5088547;28;19912;-87
2022/09/26 10:25:33;;;;;;;;;;;19.30;55.10;;;;;;5087263;28;20508;-91
2022/09/26 10:28:00;;;;;;;;;;;19.20;56.30;;;;;;5088228;28;20274;-91
2022/09/26 10:30:30;;;;;;;;;;;19.20;56.80;;;;;;5086497;28;19927;-89
2022/09/26 10:32:57;;;;;;;;;;;19.20;57.90;;;;;;5087955;28;19915;-85
2022/09/26 10:35:24;;;;;;;;;;;19.20;58.60;;;;;;5089890;28;19964;-89
2022/09/26 10:38:00;;;;;;;;;;;19.10;58.50;;;;;;5088571;28;19912;-89
2022/09/26 10:40:47;;;;;;;;;;;19.10;59.00;;;;;;5086535;28;20387;-90
2022/09/26 10:43:20;;;;;;;;;;;19.10;59.30;;;;;;5086382;28;19957;-85
2022/09/26 10:45:54;;;;;;;;;;;19.10;59.80;;;;;;5086438;28;20378;-84
2022/09/26 10:48:23;;;;;;;;;;;19.20;60.10;;;;;;5087628;28;19915;-86
2022/09/26 10:50:50;;;;;;;;;;;19.20;60.40;;;;;;5086170;28;20549;-88
2022/09/26 10:53:17;;;;;;;;;;;19.20;60.70;;;;;;5087845;28;20345;-86
2022/09/26 10:55:46;;;;;;;;;;;19.20;60.20;;;;;;5087706;28;19924;-88
2022/09/26 10:58:21;;;;;;;;;;;18.90;60.40;;;;;;5086292;28;19912;-87
2022/09/26 11:00:49;;;;;;;;;;;18.90;60.80;;;;;;5088281;28;19954;-87
2022/09/26 11:03:16;;;;;;;;;;;18.90;61.10;;;;;;5086118;28;19916;-88
2022/09/26 11:05:55;;;;;;;;;;;18.80;61.30;;;;;;5087820;28;19977;-84
2022/09/26 11:08:25;;;;;;;;;;;18.80;61.40;;;;;;5087585;28;20437;-86
2022/09/26 11:10:51;;;;;;;;;;;18.70;61.80;;;;;;5088469;28;19924;-88
2022/09/26 11:13:21;;;;;;;;;;;18.70;61.90;;;;;;5087795;28;19908;-88
2022/09/26 11:16:00;;;;;;;;;;;18.60;61.70;;;;;;5088237;28;19997;-88
2022/09/26 11:18:43;;;;;;;;;;;18.50;61.80;;;;;;5085986;28;19942;-85
2022/09/26 11:21:14;;;;;;;;;;;18.30;61.90;;;;;;5084439;28;20446;-89
2022/09/26 11:23:58;;;;;;;;;;;18.30;62.20;;;;;;5088254;28;19918;-88
2022/09/26 11:26:24;;;;;;;;;;;18.30;62.80;;;;;;5088683;28;20512;-89
2022/09/26 11:29:03;;;;;;;;;;;18.30;62.80;;;;;;5087073;28;20007;-85
2022/09/26 11:31:33;;;;;;;;;;;18.20;62.60;;;;;;5084490;28;19920;-89
2022/09/26 11:34:02;;;;;;;;;;;18.10;62.60;;;;;;5087587;28;20483;-89
2022/09/26 11:36:45;;;;;;;;;;;18.10;62.70;;;;;;5090392;28;19926;-89
2022/09/26 11:39:19;;;;;;;;;;;18.00;62.80;;;;;;5089109;28;20251;-87
2022/09/26 11:41:51;;;;;;;;;;;17.90;62.70;;;;;;5091055;28;19931;-86
2022/09/26 11:44:31;;;;;;;;;;;17.90;63.10;;;;;;5093070;28;20274;-89
2022/09/26 11:47:03;;;;;;;;;;;18.00;63.30;;;;;;5087679;28;19984;-86
2022/09/26 11:49:31;;;;;;;;;;;18.00;63.20;;;;;;5090756;28;19912;-86
2022/09/26 11:52:13;;;;;;;;;;;18.10;63.10;;;;;;5089135;28;19920;-89
2022/09/26 11:54:45;;;;;;;;;;;18.10;63.10;;;;;;5089725;28;19912;-86
2022/09/26 11:57:16;;;;;;;;;;;18.10;63.30;;;;;;5088437;28;20007;-87
2022/09/26 11:59:42;;;;;;;;;;;17.80;62.30;;;;;;5088430;28;20337;-86
2022/09/26 12:02:22;;;;;;;;;;;17.80;62.40;;;;;;5087172;28;19964;-85
2022/09/26 12:05:00;;;;;;;;;;;17.80;62.70;;;;;;5088711;28;19920;-87
2022/09/26 12:07:32;;;;;;;;;;;17.80;62.80;;;;;;5091098;28;20432;-86
2022/09/26 12:10:16;;;;;;;;;;;17.70;63.10;;;;;;5090757;28;20135;-87
2022/09/26 12:13:05;;;;;;;;;;;17.70;63.20;;;;;;5090738;28;20290;-87
2022/09/26 12:15:53;;;;;;;;;;;17.70;63.20;;;;;;5062673;28;19943;-86
2022/09/26 12:18:36;;;;;;;;;;;17.70;63.50;;;;;;5088952;28;19926;-90
2022/09/26 12:21:17;;;;;;;;;;;17.70;63.70;;;;;;5089739;28;20394;-87
2022/09/26 12:24:00;;;;;;;;;;;17.60;63.60;;;;;;5090032;28;19916;-89
2022/09/26 12:26:39;;;;;;;;;;;17.70;63.70;;;;;;5089826;28;19916;-90
2022/09/26 12:29:07;;;;;;;;;;;17.70;64.10;;;;;;5091727;28;19926;-86
2022/09/26 12:31:54;;;;;;;;;;;17.70;63.80;;;;;;5088496;28;20453;-89
2022/09/26 12:34:43;;;;;;;;;;;17.70;63.80;;;;;;5088302;28;19993;-87
2022/09/26 12:37:17;;;;;;;;;;;17.70;63.90;;;;;;5092479;28;20434;-85
2022/09/26 12:39:59;;;;;;;;;;;17.60;64.00;;;;;;5090170;28;20605;-89
2022/09/26 12:42:35;;;;;;;;;;;17.70;64.00;;;;;;5088869;28;19916;-88
2022/09/26 12:45:16;;;;;;;;;;;17.70;63.80;;;;;;5085455;28;19939;-90
2022/09/26 12:48:01;;;;;;;;;;;17.70;63.90;;;;;;5088896;28;20481;-88
2022/09/26 12:50:29;;;;;;;;;;;17.70;64.00;;;;;;5089449;28;19912;-88
2022/09/26 12:53:04;;;;;;;;;;;17.70;63.90;;;;;;5092022;28;19920;-85
2022/09/26 12:55:39;;;;;;;;;;;17.50;63.80;;;;;;5087944;28;19912;-85
2022/09/26 12:58:08;;;;;;;;;;;17.50;64.00;;;;;;5089961;28;19927;-89
2022/09/26 13:00:39;;;;;;;;;;;17.50;64.10;;;;;;5086864;28;19931;-86
2022/09/26 13:03:18;;;;;;;;;;;17.50;64.10;;;;;;5089279;28;19966;-85
2022/09/26 13:06:03;;;;;;;;;;;17.50;64.20;;;;;;5085544;28;19920;-87
2022/09/26 13:08:47;;;;;;;;;;;17.50;64.40;;;;;;5086062;28;19927;-85
2022/09/26 13:11:12;;;;;;;;;;;17.50;64.40;;;;;;5079746;28;19970;-85
2022/09/26 13:13:51;;;;;;;;;;;17.50;64.40;;;;;;5083817;28;19920;-86
2022/09/26 13:16:22;;;;;;;;;;;17.50;64.40;;;;;;5080890;28;19924;-87
2022/09/26 13:18:55;;;;;;;;;;;17.40;64.50;;;;;;5084289;28;20035;-88
2022/09/26 13:21:28;;;;;;;;;;;17.50;64.60;;;;;;5082644;28;19997;-88
2022/09/26 13:23:56;;;;;;;;;;;17.70;64.70;;;;;;5080945;28;19924;-88
2022/09/26 13:26:27;;;;;;;;;;;17.80;64.70;;;;;;5079529;28;20491;-86
2022/09/26 13:29:01;;;;;;;;;;;17.90;64.70;;;;;;5083714;28;20351;-90
2022/09/26 13:31:34;;;;;;;;;;;18.20;64.80;;;;;;5084439;28;19919;-86
2022/09/26 13:34:07;;;;;;;;;;;18.40;64.90;;;;;;5081009;28;20334;-88
2022/09/26 13:36:36;;;;;;;;;;;18.70;64.40;;;;;;5084999;28;19995;-87
2022/09/26 13:39:04;;;;;;;;;;;19.00;64.30;;;;;;5088493;28;19923;-89
2022/09/26 13:41:48;;;;;;;;;;;19.30;64.00;;;;;;5089463;28;20077;-87
2022/09/26 13:44:33;;;;;;;;;;;19.70;63.30;;;;;;5086741;28;19920;-89
2022/09/26 13:47:00;;;;;;;;;;;19.90;62.70;;;;;;5087558;28;20011;-89
2022/09/26 13:49:32;;;;;;;;;;;20.20;62.30;;;;;;5089479;28;19912;-90
2022/09/26 13:52:22;;;;;;;;;;;20.30;61.40;;;;;;5087326;28;19927;-90
2022/09/26 13:54:56;;;;;;;;;;;20.50;60.50;;;;;;5086502;28;19920;-86
2022/09/26 13:57:30;;;;;;;;;;;20.50;59.40;;;;;;5089108;28;20294;-87
2022/09/26 13:59:56;;;;;;;;;;;20.60;59.20;;;;;;5089882;28;19965;-91
2022/09/26 14:02:25;;;;;;;;;;;20.60;59.90;;;;;;5089133;28;19924;-91
2022/09/26 14:04:51;;;;;;;;;;;20.40;58.30;;;;;;5088873;28;20383;-88
2022/09/26 14:10:01;;;;;;;;;;;20.30;58.80;;;;;;5086855;28;19957;-90
2022/09/26 14:12:30;;;;;;;;;;;20.20;59.00;;;;;;5088029;28;20368;-87
2022/09/26 14:15:16;;;;;;;;;;;20.20;59.20;;;;;;5084178;28;19916;-86
2022/09/26 14:17:45;;;;;;;;;;;20.10;58.60;;;;;;5087067;28;19927;-88
2022/09/26 14:20:15;;;;;;;;;;;19.90;59.20;;;;;;5083380;28;20009;-90
2022/09/26 14:22:51;;;;;;;;;;;19.80;59.30;;;;;;5085108;28;19920;-87
2022/09/26 14:25:35;;;;;;;;;;;19.70;59.40;;;;;;5081989;28;20469;-90
2022/09/26 14:28:11;;;;;;;;;;;19.50;59.90;;;;;;5082681;28;19920;-90
2022/09/26 14:30:36;;;;;;;;;;;19.30;60.20;;;;;;5082978;28;19916;-86
2022/09/26 14:33:04;;;;;;;;;;;19.10;59.90;;;;;;5087221;28;20370;-85
2022/09/26 14:35:33;;;;;;;;;;;18.90;60.20;;;;;;5085799;28;19919;-89
2022/09/26 14:38:13;;;;;;;;;;;18.80;60.70;;;;;;5084799;28;20001;-86
2022/09/26 14:40:51;;;;;;;;;;;18.60;60.80;;;;;;5086537;28;20022;-88
2022/09/26 14:43:17;;;;;;;;;;;18.50;61.40;;;;;;5084140;28;20256;-85
2022/09/26 14:45:45;;;;;;;;;;;18.40;61.70;;;;;;5085592;28;20147;-86
2022/09/26 14:48:10;;;;;;;;;;;18.50;62.10;;;;;;5080788;28;20304;-89
2022/09/26 14:51:02;;;;;;;;;;;18.40;62.30;;;;;;5086600;28;19916;-89
2022/09/26 14:53:27;;;;;;;;;;;18.30;61.90;;;;;;5085651;28;19920;-88